BUY weather

Public forecast

Using degrees Fahrenheit for public forecast. Weather courtesy of forecast.io.

Current aviation weather report (METAR) for Burlington Alamance Regional Airport

Retrieved 2020/08/15 09:08 UTC (43 minutes ago):

KBUY 150908Z AUTO 03003KT 10SM SCT010 SCT029 BKN038 24/22 A2991 RMK AO2 T02390222

Closest aviation forecast (TAF) to Burlington Alamance Regional Airport

Closest forecast is Piedmont Triad International Airport, 22.6 nm (41.9 km) W. Retrieved 2020/08/15 06:48 UTC (3 hours ago):

TAF KGSO 150545Z 1506/1606 07004KT P6SM SHRA BKN005 BKN012 OVC026 FM150900 06003KT 4SM BR VCSH OVC004 FM151500 06004KT 6SM BR SCT004 SCT008 OVC015 FM151800 05006KT 6SM SHRA BKN025 TEMPO 1520/1524 2SM -TSRA BKN015CB FM160300 03003KT 2SM BR OVC007